SBPA

Details ICAO SBPA (POA)
Name Salgado Filho Airport
Region Brazil
Timezone America/Sao_Paulo (UTC-3.0)
Plans Departing 574
Arriving 517
Stats Elevation 11 ft / 3 m (AMSL)
Location -29.994600° -51.171200°
Runways 1
Magnetic Variation 17.006° W
Sunrise 2018-10-17 08:45:38 UTC / 2018-10-17 05:45:38 Local
Sunset 2018-10-17 21:36:43 UTC / 2018-10-17 18:36:43 Local
Advertisement - Login to hide

Runways

ID Width Length Bearing (true/mag) Surface Threshold Overrun Markings Lighting
11 148 ft / 45 m 7,487 ft / 2,282 m 91.26° / 108.26° ASPHALT 0 ft / 0 m 197 ft / 60 m PREC-APP EDGE THRESHOLD ALSF-I
29 148 ft / 45 m 7,487 ft / 2,282 m 271.25° / 288.25° ASPHALT 0 ft / 0 m 197 ft / 60 m APP EDGE THRESHOLD

Approach Navaids

Runway Type Ident Frequency Range Bearing (true/mag) Slope Elevation
11 OM OM - - 91.60° / 108.60° - 11 ft / 3 m (AMSL)
11 LOC-ILS IPA 110.30 MHz 18 nm / 33 km 90.92° / 107.93° - 11 ft / 3 m (AMSL)
11 MM MM - - 91.60° / 108.60° - 11 ft / 3 m (AMSL)
11 GS IPA 110.30 MHz 10 nm / 19 km 92.19° / 109.20° 3.00° 11 ft / 3 m (AMSL)

Map

Weather


0- 5 10 15 20 25 30 35+ Temperature / °C

Clouds and Precipitation
Forecast for 2018-10-17 18:00 UTC. Updated 2 hours ago

Ground ~20,000 ft ~40,000 ft Winds

METAR

SBPA 171800Z 07006KT CAVOK 29/20 Q1008

TAF

Not found

Frequencies

Ground 121.90 MHz
Recorded 132.35 MHz ATIS
Approach 119.00 MHz
Tower 118.10 MHz
Warning: Do not use this data for real-world aviation or navigation. No guarantee of current accuracy is given.